createdAt,value
2022-12-11T00:01:18.102Z,-0.70
2022-12-11T00:03:46.607Z,-0.60
2022-12-11T00:06:18.085Z,-0.60
2022-12-11T00:08:47.473Z,-0.70
2022-12-11T00:11:17.939Z,-0.60
2022-12-11T00:13:47.730Z,-0.60
2022-12-11T00:16:16.261Z,-0.80
2022-12-11T00:18:44.659Z,-0.80
2022-12-11T00:21:15.924Z,-0.80
2022-12-11T00:23:44.350Z,-0.70
2022-12-11T00:26:16.548Z,-0.70
2022-12-11T00:28:46.124Z,-0.70
2022-12-11T00:31:17.986Z,-0.50
2022-12-11T00:33:48.990Z,-0.50
2022-12-11T00:36:20.561Z,-0.50
2022-12-11T00:38:52.048Z,-0.50
2022-12-11T00:41:22.064Z,-0.40
2022-12-11T00:43:50.146Z,-0.20
2022-12-11T00:46:18.309Z,-0.10
2022-12-11T00:48:48.711Z,-0.30
2022-12-11T00:51:16.883Z,0.00
2022-12-11T00:53:45.000Z,0.00
2022-12-11T00:56:15.727Z,0.10
2022-12-11T00:58:45.640Z,0.00
2022-12-11T01:01:16.680Z,0.00
2022-12-11T01:03:45.606Z,-0.20
2022-12-11T01:06:16.568Z,0.00
2022-12-11T01:08:45.899Z,0.00
2022-12-11T01:11:15.325Z,0.20
2022-12-11T01:13:46.264Z,0.40
2022-12-11T01:16:16.891Z,0.20
2022-12-11T01:18:45.157Z,0.20
2022-12-11T01:21:14.578Z,0.40
2022-12-11T01:23:42.665Z,0.50
2022-12-11T01:26:15.011Z,0.30
2022-12-11T01:28:45.285Z,0.00
2022-12-11T01:31:16.437Z,0.00
2022-12-11T01:33:44.559Z,0.00
2022-12-11T01:36:16.285Z,0.10
2022-12-11T01:38:44.358Z,-0.10
2022-12-11T01:41:12.889Z,-0.30
2022-12-11T01:44:02.557Z,-0.40
2022-12-11T01:46:32.276Z,-0.30
2022-12-11T01:49:02.270Z,-0.30
2022-12-11T01:51:32.753Z,-0.30
2022-12-11T01:54:06.697Z,-0.40
2022-12-11T01:56:40.199Z,-0.50
2022-12-11T01:59:11.295Z,-0.40
2022-12-11T02:01:45.796Z,-0.40
2022-12-11T02:04:15.561Z,-0.40
2022-12-11T02:06:46.694Z,-0.20
2022-12-11T02:09:17.794Z,-0.30
2022-12-11T02:11:57.829Z,-0.40
2022-12-11T02:14:36.308Z,-0.50
2022-12-11T02:17:10.427Z,-0.60
2022-12-11T02:20:00.918Z,-0.70
2022-12-11T02:22:53.921Z,-0.70
2022-12-11T02:25:28.730Z,-0.80
2022-12-11T02:28:19.610Z,-0.70
2022-12-11T02:30:56.521Z,-0.70
2022-12-11T02:33:30.633Z,-0.60
2022-12-11T02:35:59.178Z,-0.60
2022-12-11T02:38:33.612Z,-0.70
2022-12-11T02:41:02.495Z,-0.60
2022-12-11T02:43:33.547Z,-0.60
2022-12-11T02:46:04.482Z,-0.60
2022-12-11T02:48:34.989Z,-0.60
2022-12-11T02:51:05.548Z,-0.60
2022-12-11T02:53:36.917Z,-0.60
2022-12-11T02:56:12.297Z,-0.70
2022-12-11T02:58:52.604Z,-0.60
2022-12-11T03:01:23.475Z,-0.70
2022-12-11T03:03:51.504Z,-0.80
2022-12-11T03:06:23.525Z,-0.70
2022-12-11T03:08:52.121Z,-0.60
2022-12-11T03:11:20.115Z,-0.50
2022-12-11T03:13:51.437Z,-0.60
2022-12-11T03:16:31.662Z,-0.60
2022-12-11T03:19:16.632Z,-0.80
2022-12-11T03:21:53.311Z,-0.90
2022-12-11T03:24:27.471Z,-0.90
2022-12-11T03:27:03.558Z,-0.90
2022-12-11T03:29:40.533Z,-0.80
2022-12-11T03:32:16.754Z,-0.80
2022-12-11T03:34:48.170Z,-0.70
2022-12-11T03:37:17.590Z,-0.70
2022-12-11T03:39:50.023Z,-0.70
2022-12-11T03:42:20.188Z,-0.60
2022-12-11T03:44:51.854Z,-0.60
2022-12-11T03:47:23.987Z,-0.70
2022-12-11T03:49:54.509Z,-0.70
2022-12-11T03:52:24.143Z,-0.70
2022-12-11T03:54:52.525Z,-0.60
2022-12-11T03:57:27.093Z,-0.60
2022-12-11T03:59:56.691Z,-0.60
2022-12-11T04:02:24.770Z,-0.50
2022-12-11T04:04:52.773Z,-0.50
2022-12-11T04:07:23.276Z,-0.50
2022-12-11T04:09:51.259Z,-0.40
2022-12-11T04:12:19.244Z,-0.40
2022-12-11T04:15:01.821Z,-0.30
2022-12-11T04:17:49.486Z,-0.30
2022-12-11T04:20:36.515Z,-0.30
2022-12-11T04:23:23.096Z,-0.30
2022-12-11T04:25:51.406Z,-0.40
2022-12-11T04:28:19.404Z,-0.40
2022-12-11T04:30:50.266Z,-0.50
2022-12-11T04:33:19.663Z,-0.40
2022-12-11T04:35:47.705Z,-0.40
2022-12-11T04:38:15.733Z,-0.40
2022-12-11T04:40:43.752Z,-0.50
2022-12-11T04:43:11.760Z,-0.40
2022-12-11T04:45:39.804Z,-0.50
2022-12-11T04:48:08.516Z,-0.50
2022-12-11T04:50:37.824Z,-0.50
2022-12-11T04:53:05.759Z,-0.50
2022-12-11T04:55:33.759Z,-0.30
2022-12-11T04:58:01.724Z,0.00
2022-12-11T05:00:29.668Z,-0.20
2022-12-11T05:02:57.701Z,-0.20
2022-12-11T05:05:25.745Z,-0.20
2022-12-11T05:07:55.136Z,-0.30
2022-12-11T05:10:23.115Z,-0.30
2022-12-11T05:12:51.093Z,-0.40
2022-12-11T05:15:19.261Z,-0.30
2022-12-11T05:17:47.213Z,-0.10
2022-12-11T05:20:15.174Z,0.20
2022-12-11T05:22:43.158Z,0.00
2022-12-11T05:25:12.715Z,-0.10
2022-12-11T05:27:40.966Z,-0.10
2022-12-11T05:30:11.077Z,-0.10
2022-12-11T05:32:39.110Z,-0.10
2022-12-11T05:35:08.309Z,-0.10
2022-12-11T05:37:36.506Z,-0.20
2022-12-11T05:40:07.203Z,-0.20
2022-12-11T05:42:36.588Z,-0.20
2022-12-11T05:45:05.266Z,-0.30
2022-12-11T05:47:33.233Z,-0.30
2022-12-11T05:50:01.368Z,-0.30
2022-12-11T05:52:29.383Z,-0.20
2022-12-11T05:54:57.387Z,-0.20
2022-12-11T05:57:25.375Z,-0.20
2022-12-11T05:59:54.887Z,-0.20
2022-12-11T06:02:23.022Z,-0.30
2022-12-11T06:04:51.033Z,-0.30
2022-12-11T06:07:18.996Z,-0.30
2022-12-11T06:09:47.004Z,-0.20
2022-12-11T06:12:14.980Z,-0.30
2022-12-11T06:14:43.261Z,-0.20
2022-12-11T06:17:12.615Z,0.00
2022-12-11T06:19:40.844Z,-0.20
2022-12-11T06:22:08.840Z,-0.20
2022-12-11T06:24:36.847Z,-0.30
2022-12-11T06:27:05.037Z,-0.20
2022-12-11T06:29:33.118Z,-0.20
2022-12-11T06:32:03.639Z,-0.10
2022-12-11T06:34:33.031Z,0.20
2022-12-11T06:37:01.096Z,0.40
2022-12-11T06:39:28.996Z,0.20
2022-12-11T06:41:56.985Z,0.20
2022-12-11T06:44:25.018Z,0.10
2022-12-11T06:46:52.976Z,0.10
2022-12-11T06:49:21.058Z,0.00
2022-12-11T06:51:50.537Z,0.00
2022-12-11T06:54:18.555Z,-0.20
2022-12-11T06:56:47.814Z,-0.10
2022-12-11T06:59:15.807Z,-0.10
2022-12-11T07:01:43.788Z,-0.20
2022-12-11T07:04:11.786Z,-0.30
2022-12-11T07:06:39.830Z,-0.30
2022-12-11T07:09:09.829Z,-0.30
2022-12-11T07:11:37.788Z,-0.20
2022-12-11T07:14:05.834Z,-0.20
2022-12-11T07:16:33.866Z,-0.10
2022-12-11T07:19:02.096Z,-0.10
2022-12-11T07:21:30.057Z,-0.10
2022-12-11T07:23:58.079Z,-0.10
2022-12-11T07:26:27.529Z,-0.10
2022-12-11T07:28:58.242Z,-0.10
2022-12-11T07:31:29.422Z,0.20
2022-12-11T07:34:00.294Z,0.20
2022-12-11T07:36:29.487Z,0.10
2022-12-11T07:38:57.907Z,0.20
2022-12-11T07:41:28.248Z,0.50
2022-12-11T07:43:56.260Z,0.60
2022-12-11T07:46:26.952Z,0.40
2022-12-11T07:48:55.541Z,0.30
2022-12-11T07:51:27.998Z,0.30
2022-12-11T07:53:58.609Z,0.50
2022-12-11T07:56:29.911Z,0.60
2022-12-11T07:59:00.494Z,0.70
2022-12-11T08:01:31.113Z,0.60
2022-12-11T08:03:59.586Z,0.70
2022-12-11T08:06:30.892Z,0.80
2022-12-11T08:09:01.333Z,0.50
2022-12-11T08:11:31.052Z,0.60
2022-12-11T08:14:00.517Z,0.50
2022-12-11T08:16:28.952Z,0.50
2022-12-11T08:18:57.125Z,0.80
2022-12-11T08:21:27.579Z,0.90
2022-12-11T08:23:56.674Z,0.60
2022-12-11T08:26:26.802Z,0.60
2022-12-11T08:28:57.205Z,0.40
2022-12-11T08:31:25.797Z,0.30
2022-12-11T08:33:55.926Z,0.30
2022-12-11T08:36:25.030Z,0.30
2022-12-11T08:38:55.549Z,0.40
2022-12-11T08:41:26.169Z,0.40
2022-12-11T08:43:56.043Z,0.60
2022-12-11T08:46:27.605Z,0.60
2022-12-11T08:48:57.786Z,0.50
2022-12-11T08:51:28.301Z,0.50
2022-12-11T08:53:57.439Z,0.60
2022-12-11T08:56:26.051Z,0.70
2022-12-11T08:58:55.769Z,0.80
2022-12-11T09:01:25.983Z,0.90
2022-12-11T09:03:56.425Z,1.20
2022-12-11T09:06:28.191Z,1.10
2022-12-11T09:08:57.275Z,1.40
2022-12-11T09:11:28.392Z,1.60
2022-12-11T09:14:03.570Z,1.30
2022-12-11T09:16:39.608Z,1.30
2022-12-11T09:19:08.952Z,1.10
2022-12-11T09:21:37.012Z,1.20
2022-12-11T09:24:05.967Z,1.20
2022-12-11T09:26:34.110Z,1.40
2022-12-11T09:29:05.695Z,1.30
2022-12-11T09:31:37.235Z,1.10
2022-12-11T09:34:08.240Z,1.20
2022-12-11T09:36:36.979Z,1.30
2022-12-11T09:39:07.682Z,1.10
2022-12-11T09:41:40.436Z,1.20
2022-12-11T09:44:22.963Z,1.20
2022-12-11T09:46:52.313Z,1.10
2022-12-11T09:49:30.039Z,1.00
2022-12-11T09:52:13.004Z,0.80
2022-12-11T09:54:50.431Z,0.80
2022-12-11T09:57:33.674Z,1.10
2022-12-11T10:00:20.327Z,1.00
2022-12-11T10:03:19.025Z,1.20
2022-12-11T10:05:51.799Z,1.50
2022-12-11T10:08:30.561Z,1.30
2022-12-11T10:11:09.843Z,1.00
2022-12-11T10:13:49.620Z,1.10
2022-12-11T10:16:34.323Z,1.30
2022-12-11T10:19:03.534Z,1.30
2022-12-11T10:21:40.352Z,1.70
2022-12-11T10:24:41.857Z,1.20
2022-12-11T10:27:16.581Z,0.70
2022-12-11T10:29:44.638Z,0.40
2022-12-11T10:32:24.357Z,0.50
2022-12-11T10:35:00.518Z,0.60
2022-12-11T10:37:28.755Z,0.60
2022-12-11T10:39:56.760Z,0.70
2022-12-11T10:42:27.790Z,0.80
2022-12-11T10:45:01.746Z,1.10
2022-12-11T10:47:33.326Z,1.20
2022-12-11T10:50:03.426Z,1.30
2022-12-11T10:52:34.923Z,1.10
2022-12-11T10:55:05.975Z,1.10
2022-12-11T10:57:37.154Z,1.40
2022-12-11T11:00:09.628Z,1.40
2022-12-11T11:02:40.594Z,1.50
2022-12-11T11:05:17.251Z,1.60
2022-12-11T11:07:45.382Z,1.60
2022-12-11T11:10:18.923Z,1.40
2022-12-11T11:12:49.516Z,1.50
2022-12-11T11:15:23.264Z,1.60
2022-12-11T11:17:56.135Z,1.70
2022-12-11T11:20:27.847Z,1.50
2022-12-11T11:22:59.429Z,1.50
2022-12-11T11:25:30.014Z,1.80
2022-12-11T11:28:01.445Z,1.60
2022-12-11T11:30:33.105Z,1.40
2022-12-11T11:33:07.439Z,1.40
2022-12-11T11:35:40.160Z,1.70
2022-12-11T11:38:20.903Z,1.60
2022-12-11T11:41:00.743Z,1.90
2022-12-11T11:43:41.168Z,2.10
2022-12-11T11:46:16.150Z,2.00
2022-12-11T11:49:01.627Z,1.80
2022-12-11T11:51:36.172Z,1.80
2022-12-11T11:54:19.756Z,1.50
2022-12-11T11:56:47.972Z,1.40
2022-12-11T11:59:24.548Z,1.40
2022-12-11T12:01:58.369Z,1.60
2022-12-11T12:04:33.167Z,1.40
2022-12-11T12:07:25.567Z,1.50
2022-12-11T12:10:00.285Z,1.60
2022-12-11T12:12:41.092Z,1.60
2022-12-11T12:15:30.536Z,1.60
2022-12-11T12:18:05.523Z,2.00
2022-12-11T12:20:44.878Z,2.00
2022-12-11T12:23:37.139Z,1.90
2022-12-11T12:26:13.401Z,1.50
2022-12-11T12:28:53.802Z,1.40
2022-12-11T12:31:40.806Z,1.80
2022-12-11T12:34:21.652Z,1.70
2022-12-11T12:37:02.288Z,1.80
2022-12-11T12:39:49.897Z,1.70
2022-12-11T12:42:28.219Z,1.90
2022-12-11T12:45:02.506Z,1.50
2022-12-11T12:47:34.833Z,1.70
2022-12-11T12:50:05.537Z,1.80
2022-12-11T12:52:37.856Z,1.70
2022-12-11T12:55:22.926Z,2.00
2022-12-11T12:57:54.475Z,1.80
2022-12-11T13:00:35.580Z,2.00
2022-12-11T13:03:14.669Z,1.70
2022-12-11T13:05:46.304Z,1.80
2022-12-11T13:08:26.431Z,1.50
2022-12-11T13:11:03.451Z,1.50
2022-12-11T13:13:37.892Z,1.40
2022-12-11T13:16:26.208Z,1.30
2022-12-11T13:18:54.792Z,1.30
2022-12-11T13:21:34.106Z,1.30
2022-12-11T13:24:28.833Z,1.30
2022-12-11T13:26:57.326Z,1.20
2022-12-11T13:29:35.677Z,1.20
2022-12-11T13:32:21.548Z,1.30
2022-12-11T13:34:55.237Z,1.30
2022-12-11T13:37:28.265Z,1.20
2022-12-11T13:39:58.215Z,1.10
2022-12-11T13:42:31.008Z,1.40
2022-12-11T13:45:02.994Z,1.40
2022-12-11T13:47:34.292Z,1.50
2022-12-11T13:50:16.142Z,1.30
2022-12-11T13:52:54.941Z,1.30
2022-12-11T13:55:27.389Z,1.40
2022-12-11T13:57:55.403Z,1.20
2022-12-11T14:00:26.522Z,1.00
2022-12-11T14:02:57.678Z,0.90
2022-12-11T14:05:26.196Z,1.20
2022-12-11T14:07:57.689Z,1.40
2022-12-11T14:10:29.173Z,1.30
2022-12-11T14:13:02.010Z,1.30
2022-12-11T14:15:32.622Z,1.20
2022-12-11T14:18:02.181Z,1.50
2022-12-11T14:20:33.904Z,1.50
2022-12-11T14:23:20.344Z,1.40
2022-12-11T14:25:56.418Z,1.50
2022-12-11T14:28:27.643Z,1.50
2022-12-11T14:30:59.072Z,1.50
2022-12-11T14:33:32.218Z,1.80
2022-12-11T14:36:03.910Z,1.60
2022-12-11T14:38:36.763Z,1.60
2022-12-11T14:41:13.867Z,1.40
2022-12-11T14:43:46.731Z,1.20
2022-12-11T14:46:21.601Z,1.30
2022-12-11T14:49:00.454Z,1.60
2022-12-11T14:51:31.768Z,1.60
2022-12-11T14:54:00.158Z,1.70
2022-12-11T14:56:31.058Z,1.70
2022-12-11T14:59:01.975Z,1.60
2022-12-11T15:01:33.596Z,1.70
2022-12-11T15:04:08.177Z,1.80
2022-12-11T15:06:45.682Z,1.70
2022-12-11T15:09:21.648Z,1.90
2022-12-11T15:11:53.760Z,2.10
2022-12-11T15:14:23.932Z,2.00
2022-12-11T15:16:55.776Z,1.90
2022-12-11T15:19:28.158Z,1.50
2022-12-11T15:21:57.569Z,1.60
2022-12-11T15:24:33.992Z,1.60
2022-12-11T15:27:03.495Z,1.50
2022-12-11T15:29:38.874Z,1.50
2022-12-11T15:32:21.751Z,1.70
2022-12-11T15:34:54.403Z,1.70
2022-12-11T15:37:24.883Z,1.40
2022-12-11T15:39:54.532Z,1.50
2022-12-11T15:42:28.312Z,1.60
2022-12-11T15:44:57.266Z,1.40
2022-12-11T15:47:29.017Z,1.40
2022-12-11T15:50:00.812Z,1.20
2022-12-11T15:52:29.183Z,1.10
2022-12-11T15:54:57.201Z,1.30
2022-12-11T15:57:26.644Z,1.10
2022-12-11T15:59:56.049Z,1.10
2022-12-11T16:02:26.546Z,1.10
2022-12-11T16:04:56.471Z,1.20
2022-12-11T16:07:26.901Z,1.30
2022-12-11T16:09:54.919Z,1.40
2022-12-11T16:12:22.905Z,1.30
2022-12-11T16:14:52.394Z,1.30
2022-12-11T16:17:20.474Z,1.30
2022-12-11T16:19:48.445Z,1.30
2022-12-11T16:22:16.910Z,1.20
2022-12-11T16:24:44.896Z,1.10
2022-12-11T16:27:13.018Z,1.10
2022-12-11T16:29:42.861Z,1.10
2022-12-11T16:32:12.286Z,1.10
2022-12-11T16:34:40.507Z,1.20
2022-12-11T16:37:10.307Z,1.20
2022-12-11T16:39:40.006Z,1.10
2022-12-11T16:42:08.267Z,1.00
2022-12-11T16:44:40.929Z,1.00
2022-12-11T16:47:13.268Z,0.90
2022-12-11T16:49:42.176Z,1.10
2022-12-11T16:52:10.599Z,1.00
2022-12-11T16:54:38.819Z,1.00
2022-12-11T16:57:06.812Z,1.00
2022-12-11T16:59:37.376Z,1.00
2022-12-11T17:02:06.382Z,0.90
2022-12-11T17:04:40.594Z,0.80
2022-12-11T17:07:08.542Z,0.80
2022-12-11T17:09:37.140Z,0.80
2022-12-11T17:12:06.366Z,0.90
2022-12-11T17:14:37.476Z,0.90
2022-12-11T17:17:06.696Z,0.90
2022-12-11T17:19:38.017Z,0.80
2022-12-11T17:22:06.150Z,1.00
2022-12-11T17:24:34.144Z,0.90
2022-12-11T17:27:02.495Z,1.00
2022-12-11T17:29:30.648Z,1.00
2022-12-11T17:31:59.707Z,1.00
2022-12-11T17:34:30.745Z,1.00
2022-12-11T17:37:02.709Z,1.20
2022-12-11T17:39:31.229Z,1.00
2022-12-11T17:41:59.208Z,1.00
2022-12-11T17:44:30.294Z,0.90
2022-12-11T17:46:58.657Z,1.00
2022-12-11T17:49:27.769Z,1.00
2022-12-11T17:51:55.844Z,1.00
2022-12-11T17:54:25.773Z,0.90
2022-12-11T17:56:54.025Z,0.90
2022-12-11T17:59:22.415Z,0.80
2022-12-11T18:01:51.442Z,0.60
2022-12-11T18:04:21.200Z,0.50
2022-12-11T18:06:49.592Z,0.50
2022-12-11T18:09:17.868Z,0.60
2022-12-11T18:11:47.384Z,0.60
2022-12-11T18:14:17.402Z,0.60
2022-12-11T18:16:46.183Z,0.60
2022-12-11T18:19:15.651Z,0.60
2022-12-11T18:21:45.752Z,0.50
2022-12-11T18:24:14.765Z,0.40
2022-12-11T18:26:43.890Z,0.40
2022-12-11T18:29:13.344Z,0.40
2022-12-11T18:31:43.393Z,0.30
2022-12-11T18:34:11.955Z,0.40
2022-12-11T18:36:41.814Z,0.50
2022-12-11T18:39:09.924Z,0.50
2022-12-11T18:41:38.684Z,0.40
2022-12-11T18:44:10.128Z,0.50
2022-12-11T18:46:40.271Z,0.50
2022-12-11T18:49:08.352Z,0.70
2022-12-11T18:51:36.372Z,0.50
2022-12-11T18:54:04.777Z,0.50
2022-12-11T18:56:32.836Z,0.60
2022-12-11T18:59:00.858Z,0.50
2022-12-11T19:01:30.276Z,0.50
2022-12-11T19:04:10.462Z,0.50
2022-12-11T19:06:39.181Z,0.50
2022-12-11T19:09:08.970Z,0.50
2022-12-11T19:11:40.196Z,0.50
2022-12-11T19:14:10.390Z,0.50
2022-12-11T19:16:41.993Z,0.60
2022-12-11T19:19:18.054Z,0.60
2022-12-11T19:21:47.209Z,0.60
2022-12-11T19:24:20.953Z,0.70
2022-12-11T19:26:49.054Z,0.60
2022-12-11T19:29:22.293Z,0.50
2022-12-11T19:31:50.772Z,0.50
2022-12-11T19:34:20.767Z,0.50
2022-12-11T19:36:48.831Z,0.50
2022-12-11T19:39:18.040Z,0.50
2022-12-11T19:41:46.354Z,0.60
2022-12-11T19:44:15.029Z,0.70
2022-12-11T19:46:43.142Z,0.70
2022-12-11T19:49:13.132Z,0.60
2022-12-11T19:51:45.959Z,0.60
2022-12-11T19:54:17.618Z,0.60
2022-12-11T19:56:47.938Z,0.50
2022-12-11T19:59:17.907Z,0.60
2022-12-11T20:01:47.897Z,0.50
2022-12-11T20:04:20.419Z,0.50
2022-12-11T20:06:50.203Z,0.60
2022-12-11T20:09:18.905Z,0.60
2022-12-11T20:11:47.626Z,0.60
2022-12-11T20:14:21.629Z,0.70
2022-12-11T20:19:38.613Z,0.80
2022-12-11T20:22:09.196Z,0.70
2022-12-11T20:24:37.274Z,0.70
2022-12-11T20:27:06.337Z,0.70
2022-12-11T20:29:38.859Z,0.60
2022-12-11T20:32:07.246Z,0.70
2022-12-11T20:34:35.401Z,0.70
2022-12-11T20:37:10.536Z,0.70
2022-12-11T20:39:38.580Z,0.70
2022-12-11T20:42:06.779Z,0.70
2022-12-11T20:44:34.831Z,0.70
2022-12-11T20:47:05.875Z,0.70
2022-12-11T20:49:33.930Z,0.60
2022-12-11T20:52:01.922Z,0.50
2022-12-11T20:54:31.386Z,0.60
2022-12-11T20:56:59.376Z,0.60
2022-12-11T20:59:27.419Z,0.70
2022-12-11T21:01:55.805Z,0.60
2022-12-11T21:04:24.097Z,0.50
2022-12-11T21:06:56.171Z,0.60
2022-12-11T21:09:27.692Z,0.60
2022-12-11T21:11:58.337Z,0.50
2022-12-11T21:14:26.470Z,0.50
2022-12-11T21:16:54.616Z,0.50
2022-12-11T21:19:23.821Z,0.60
2022-12-11T21:21:52.470Z,0.60
2022-12-11T21:24:27.505Z,0.70
2022-12-11T21:26:58.974Z,0.70
2022-12-11T21:29:29.914Z,0.70
2022-12-11T21:31:58.293Z,0.70
2022-12-11T21:34:26.463Z,0.70
2022-12-11T21:36:59.563Z,0.60
2022-12-11T21:39:29.233Z,0.70
2022-12-11T21:42:00.422Z,0.70
2022-12-11T21:47:17.292Z,0.80
2022-12-11T21:49:45.351Z,0.60
2022-12-11T21:52:13.880Z,0.50
2022-12-11T21:54:42.527Z,0.60
2022-12-11T21:57:11.893Z,0.60
2022-12-11T21:59:39.890Z,0.60
2022-12-11T22:02:08.183Z,0.60
2022-12-11T22:04:36.929Z,0.60
2022-12-11T22:07:04.976Z,0.50
2022-12-11T22:09:34.928Z,0.60
2022-12-11T22:12:02.932Z,0.70
2022-12-11T22:14:32.276Z,0.60
2022-12-11T22:17:00.706Z,0.60
2022-12-11T22:19:32.473Z,0.50
2022-12-11T22:22:00.949Z,0.50
2022-12-11T22:24:28.953Z,0.60
2022-12-11T22:26:56.949Z,0.60
2022-12-11T22:29:24.961Z,0.50
2022-12-11T22:31:54.915Z,0.60
2022-12-11T22:34:23.447Z,0.60
2022-12-11T22:36:52.281Z,0.60
2022-12-11T22:39:20.257Z,0.50
2022-12-11T22:41:48.209Z,0.60
2022-12-11T22:44:18.463Z,0.60
2022-12-11T22:46:49.889Z,0.50
2022-12-11T22:49:20.211Z,0.50
2022-12-11T22:51:48.837Z,0.50
2022-12-11T22:54:17.242Z,0.50
2022-12-11T22:56:45.283Z,0.40
2022-12-11T22:59:13.366Z,0.50
2022-12-11T23:01:41.443Z,0.60
2022-12-11T23:04:09.461Z,0.60
2022-12-11T23:06:38.786Z,0.80
2022-12-11T23:09:07.156Z,0.70
2022-12-11T23:11:38.298Z,0.60
2022-12-11T23:14:08.144Z,0.50
2022-12-11T23:16:36.527Z,0.50
2022-12-11T23:19:05.789Z,0.50
2022-12-11T23:21:34.307Z,0.50
2022-12-11T23:24:04.771Z,0.50
2022-12-11T23:26:33.351Z,0.50
2022-12-11T23:29:02.461Z,0.50
2022-12-11T23:31:34.511Z,0.50
2022-12-11T23:34:02.793Z,0.60
2022-12-11T23:36:31.453Z,0.60
2022-12-11T23:38:59.439Z,0.50
2022-12-11T23:41:28.885Z,0.60
2022-12-11T23:43:56.880Z,0.60
2022-12-11T23:46:28.953Z,0.60
2022-12-11T23:48:57.747Z,0.60
2022-12-11T23:51:26.876Z,0.50
2022-12-11T23:53:55.467Z,0.40
2022-12-11T23:56:26.517Z,0.50
2022-12-11T23:58:57.051Z,0.40
